This is the latest recevied weather packets stored in our database for station/object W4ZHA. If no packets are shown the sender has not sent any weather packets the latest 10 day(s).
| Time | Temp. | Humidity | Pressure | Rain* | Wind** | Luminosity | Snow |
|---|---|---|---|---|---|---|---|
| 1787422310 | 32.78° C | 52% | 1016.1 hPa | 0 mm | - | 485 W/m² | - |
| 1787422006 | 31.11° C | 54% | 1015.8 hPa | 0 mm | - | 482 W/m² | - |
| 1787421703 | 31.11° C | 55% | 1016.1 hPa | 0 mm | - | 502 W/m² | - |
| 1787421397 | 31.67° C | 55% | 1016.1 hPa | 0 mm | - | 511 W/m² | - |
| 1787421093 | 31.67° C | 54% | 1016.5 hPa | 0 mm | - | 498 W/m² | - |
| 1787420788 | 30.56° C | 57% | 1016.5 hPa | 0 mm | - | 192 W/m² | - |
| 1787420484 | 30° C | 59% | 1016.5 hPa | 0 mm | - | 495 W/m² | - |
| 1787420180 | 31.11° C | 58% | 1016.5 hPa | 0 mm | - | 184 W/m² | - |
| 1787419876 | 30° C | 58% | 1016.5 hPa | 0 mm | - | 169 W/m² | - |
| 1787419567 | 31.67° C | 55% | 1016.1 hPa | 0 mm | - | 517 W/m² | - |
| 1787419267 | 31.11° C | 56% | 1016.5 hPa | 0 mm | - | 362 W/m² | - |
| 1787418963 | 31.11° C | 58% | 1016.5 hPa | 0 mm | - | 203 W/m² | - |
| 1787418658 | 30° C | 60% | 1016.5 hPa | 0 mm | - | 497 W/m² | - |
| 1787418354 | 30° C | 63% | 1016.1 hPa | 0 mm | - | 485 W/m² | - |
| 1787418051 | 29.44° C | 61% | 1016.5 hPa | 0 mm | - | 169 W/m² | - |
| 1787417746 | 30° C | 60% | 1016.5 hPa | 0 mm | - | 105 W/m² | - |
| 1787417446 | 29.44° C | 61% | 1016.5 hPa | 0 mm | - | 431 W/m² | - |
| 1787417141 | 30.56° C | 61% | 1016.8 hPa | 0 mm | - | 465 W/m² | - |
| 1787416837 | 30° C | 60% | 1016.8 hPa | 0 mm | - | 427 W/m² | - |
| 1787416533 | 28.89° C | 62% | 1016.8 hPa | 0 mm | - | 459 W/m² | - |
| 1787416227 | 30.56° C | 60% | 1016.8 hPa | 0 mm | - | 143 W/m² | - |
| 1787415922 | 30° C | 61% | 1016.8 hPa | 0 mm | - | 436 W/m² | - |
| 1787415622 | 30° C | 60% | 1016.5 hPa | 0 mm | - | 419 W/m² | - |
| 1787415318 | 30° C | 60% | 1016.8 hPa | 0 mm | - | 410 W/m² | - |
| 1787415013 | 29.44° C | 62% | 1016.8 hPa | 0 mm | - | 294 W/m² | - |
* Rain latest hour (hover to see other rain measurements)
** Current wind speed in m/s (hover to see current wind gust speed)